Escondido, CA (92029)

5:28 AM PST on December 28, 2014 (GMT -0800)
Lake Hodges | Change Station
CLOSE
Current Station
Personal Weather Station
Location: Escondido, CA
Elevation: 361 ft
Nearby Weather Stations
Active Advisory: Frost Advisory

Elev 361 ft 33.07 °N, 117.10 °W | Updated 1 minute ago

Clear
Clear
34.2 °F
Feels Like 34 °F
N
1.0
Wind Variable Wind from SE
Gusts 2.0 mph

Today
High -- | Low -- °F
--% Chance of Precip.
Yesterday
High -- | Low -- °F
Precip. -- in
6:50 AM 4:49 PM
Waxing Crescent, 47% visible
Pressure 30.24 in
Visibility 10.0 miles
Clouds Clear
Windchill 34 °F
Dew Point 24 °F
Humidity 65%
Rainfall 0.00 in
Snow Depth Not available.
UV 0 out of 12
Pollen 5.80 out of 12
Air Quality Not available.
Flu Activity Not available.
METAR KCRQ 281253Z 07004KT 10SM CLR 06/M07 A3023 RMK AO2 SLP238 T00561067

More Conditions Fewer Conditions

Pressure 30.24 in
Visibility 10.0 miles
Clouds Clear
Windchill 34 °F
Dew Point 24 °F
Humidity 65%
Rainfall 0.00 in
Snow Depth Not available.
UV 0 out of 12
Pollen 5.80 out of 12
Air Quality Not available.
Flu Activity Not available.
METAR KCRQ 281253Z 07004KT 10SM CLR 06/M07 A3023 RMK AO2 SLP238 T00561067

More Conditions Fewer Conditions

10-Day Weather Forecast

Almanac

Astronomy

Dec. 28, 2014 Rise Set
Actual Time
Civil Twilight
Nautical Twilight
Astronomical Twilight
Moon
Length of Visible Light
Length of Day
Tomorrow will be .
, % of the Moon is Illuminated

Today's Extremes

State Highs State Lows

Community

WunderPhotos

Upload Photos

1,781,258 photos uploaded!

WunderBlogs® & News

Nearby

Air Quality

  Air Quality AQ Index Pollutant
Not available.

Snow Depth

Station Depth Elevation

Earthquake Activity

City Distance Mag. Time & Date
Minimum magnitude displayed is 2.5.

Coastal Water Temperatures

Place Temperature

Nearby Weather Stations